Time;durP1;ratioP1;P1;durP2;ratioP2;P2;SDS_P1;SDS_P2;PMS_P1;PMS_P2;Temp;Humidity;BMP_temperature;BMP_pressure;BME280_temperature;BME280_humidity;BME280_pressure;Samples;Min_cycle;Max_cycle;Signal;HPM_P1;HPM_P2
2022/08/08 00:00:52;;;;;;;;;33.50;32.25;;;;;;;;5187648;28;8861;-83
2022/08/08 00:03:48;;;;;;;;;35.00;32.25;;;;;;;;5172407;28;8790;-82
2022/08/08 00:06:22;;;;;;;;;43.00;37.67;;;;;;;;5181014;28;8796;-82
2022/08/08 00:09:12;;;;;;;;;44.00;36.25;;;;;;;;5206178;28;8792;-82
2022/08/08 00:11:46;;;;;;;;;43.25;36.25;;;;;;;;5189884;28;9555;-82
2022/08/08 00:14:35;;;;;;;;;43.75;38.00;;;;;;;;5200392;28;8807;-83
2022/08/08 00:17:33;;;;;;;;;35.00;32.75;;;;;;;;5169060;28;8799;-80
2022/08/08 00:20:08;;;;;;;;;45.50;39.00;;;;;;;;5162981;28;8815;-85
2022/08/08 00:22:41;;;;;;;;;46.60;39.60;;;;;;;;5185713;28;8799;-86
2022/08/08 00:25:18;;;;;;;;;44.25;38.25;;;;;;;;5153812;28;8799;-85
2022/08/08 00:27:52;;;;;;;;;40.50;35.50;;;;;;;;5188951;28;8814;-86
2022/08/08 00:30:25;;;;;;;;;41.60;36.20;;;;;;;;5173377;28;8816;-85
2022/08/08 00:33:19;;;;;;;;;45.25;37.75;;;;;;;;5191707;28;8793;-83
2022/08/08 00:36:20;;;;;;;;;42.80;37.40;;;;;;;;5233015;28;8776;-83
2022/08/08 00:39:10;;;;;;;;;35.75;33.00;;;;;;;;5211519;28;8777;-83
2022/08/08 00:41:48;;;;;;;;;36.25;33.00;;;;;;;;5195901;28;8776;-82
2022/08/08 00:44:40;;;;;;;;;35.25;32.75;;;;;;;;5200822;28;9373;-84
2022/08/08 00:47:30;;;;;;;;;30.25;29.75;;;;;;;;5193004;28;9522;-83
2022/08/08 00:50:27;;;;;;;;;34.00;32.25;;;;;;;;5217305;28;8812;-83
2022/08/08 00:53:04;;;;;;;;;30.75;30.25;;;;;;;;5196476;28;8816;-82
2022/08/08 00:55:52;;;;;;;;;33.25;32.00;;;;;;;;5190772;28;8917;-82
2022/08/08 00:58:42;;;;;;;;;30.00;29.75;;;;;;;;5185445;28;9518;-83
2022/08/08 01:01:13;;;;;;;;;30.40;30.00;;;;;;;;5185309;28;8768;-81
2022/08/08 01:04:06;;;;;;;;;36.00;32.80;;;;;;;;5152521;28;8803;-82
2022/08/08 01:06:57;;;;;;;;;28.00;28.00;;;;;;;;5183848;28;8806;-81
2022/08/08 01:09:40;;;;;;;;;25.25;25.25;;;;;;;;5152921;28;8775;-81
2022/08/08 01:12:40;;;;;;;;;28.25;27.50;;;;;;;;5184716;28;8851;-80
2022/08/08 01:15:48;;;;;;;;;30.00;29.75;;;;;;;;5184306;28;8818;-81
2022/08/08 01:18:30;;;;;;;;;27.00;27.00;;;;;;;;5168347;28;8810;-81
2022/08/08 01:21:37;;;;;;;;;32.00;31.25;;;;;;;;5168376;28;8799;-81
2022/08/08 01:24:15;;;;;;;;;32.00;31.00;;;;;;;;5095405;28;8819;-82
2022/08/08 01:26:57;;;;;;;;;29.75;28.75;;;;;;;;5160926;28;8799;-81
2022/08/08 01:29:58;;;;;;;;;29.75;28.50;;;;;;;;5184389;28;8791;-81
2022/08/08 01:32:49;;;;;;;;;29.00;29.00;;;;;;;;5167897;28;8811;-80
2022/08/08 01:35:38;;;;;;;;;31.50;30.75;;;;;;;;5181441;28;8815;-79
2022/08/08 01:38:31;;;;;;;;;31.25;30.00;;;;;;;;5187861;28;8903;-80
2022/08/08 01:41:02;;;;;;;;;29.25;28.75;;;;;;;;5204678;28;8881;-81
2022/08/08 01:43:48;;;;;;;;;30.00;30.00;;;;;;;;5202686;28;8835;-78
2022/08/08 01:46:41;;;;;;;;;36.40;33.60;;;;;;;;5187908;28;9570;-79
2022/08/08 01:49:49;;;;;;;;;30.75;30.25;;;;;;;;5197781;28;9549;-82
2022/08/08 01:52:40;;;;;;;;;35.50;33.25;;;;;;;;5167381;28;8823;-81
2022/08/08 01:55:22;;;;;;;;;33.25;31.75;;;;;;;;5167530;28;8794;-77
2022/08/08 01:58:11;;;;;;;;;33.40;31.80;;;;;;;;5182267;28;8791;-80
2022/08/08 02:01:04;;;;;;;;;34.75;32.50;;;;;;;;5167176;28;8849;-80
2022/08/08 02:04:02;;;;;;;;;30.00;29.25;;;;;;;;5185995;28;8826;-76
2022/08/08 02:06:44;;;;;;;;;34.40;32.00;;;;;;;;5187922;28;9588;-79
2022/08/08 02:09:34;;;;;;;;;34.20;31.80;;;;;;;;5204154;28;8796;-79
2022/08/08 02:12:12;;;;;;;;;32.40;31.40;;;;;;;;5187274;28;8854;-77
2022/08/08 02:15:08;;;;;;;;;31.25;30.25;;;;;;;;5194723;28;8826;-76
2022/08/08 02:17:54;;;;;;;;;29.25;29.25;;;;;;;;5174326;28;8807;-77
2022/08/08 02:20:36;;;;;;;;;28.75;28.75;;;;;;;;5189538;28;9571;-76
2022/08/08 02:23:34;;;;;;;;;28.75;28.75;;;;;;;;5173591;28;9514;-76
2022/08/08 02:26:14;;;;;;;;;28.25;28.00;;;;;;;;5198189;28;8775;-76
2022/08/08 02:28:57;;;;;;;;;35.80;33.00;;;;;;;;5189978;28;8914;-75
2022/08/08 02:31:28;;;;;;;;;29.40;28.80;;;;;;;;5197856;28;8856;-76
2022/08/08 02:34:40;;;;;;;;;28.25;27.75;;;;;;;;5221109;28;8814;-75
2022/08/08 02:37:34;;;;;;;;;31.00;30.50;;;;;;;;5222756;28;8822;-74
2022/08/08 02:40:08;;;;;;;;;33.00;31.75;;;;;;;;5191188;28;8811;-76
2022/08/08 02:42:41;;;;;;;;;29.50;29.00;;;;;;;;5183445;28;8789;-81
2022/08/08 02:45:46;;;;;;;;;32.50;31.50;;;;;;;;5190182;28;8789;-80
2022/08/08 02:48:54;;;;;;;;;29.75;29.25;;;;;;;;5187389;28;8911;-84
2022/08/08 02:51:39;;;;;;;;;26.00;26.00;;;;;;;;5187070;28;8797;-82
2022/08/08 02:54:20;;;;;;;;;32.25;30.25;;;;;;;;5171474;28;8808;-83
2022/08/08 02:57:10;;;;;;;;;32.00;30.60;;;;;;;;5154854;28;8781;-78
2022/08/08 02:59:56;;;;;;;;;30.00;29.25;;;;;;;;5186993;28;8797;-83
2022/08/08 03:02:28;;;;;;;;;34.00;31.60;;;;;;;;5154885;28;8816;-83
2022/08/08 03:05:09;;;;;;;;;28.50;28.00;;;;;;;;5199423;28;8795;-80
2022/08/08 03:07:42;;;;;;;;;30.00;29.25;;;;;;;;5177881;28;9632;-78
2022/08/08 03:10:40;;;;;;;;;31.25;30.25;;;;;;;;5170737;28;9491;-79
2022/08/08 03:13:25;;;;;;;;;31.33;30.33;;;;;;;;5187295;28;8813;-84
2022/08/08 03:16:35;;;;;;;;;36.25;30.50;;;;;;;;5177676;28;8887;-79
2022/08/08 03:19:25;;;;;;;;;32.25;31.00;;;;;;;;5198851;28;8799;-79
2022/08/08 03:21:56;;;;;;;;;31.50;30.50;;;;;;;;5189743;28;8899;-78
2022/08/08 03:24:28;;;;;;;;;32.67;31.33;;;;;;;;5206053;28;8794;-78
2022/08/08 03:27:17;;;;;;;;;31.50;30.25;;;;;;;;5210429;28;11478;-78
2022/08/08 03:29:52;;;;;;;;;32.00;30.50;;;;;;;;5213615;28;8917;-78
2022/08/08 03:35:13;;;;;;;;;29.25;28.50;;;;;;;;5212347;28;8998;-79
2022/08/08 03:37:45;;;;;;;;;40.75;35.50;;;;;;;;5208915;28;8839;-79
2022/08/08 03:40:19;;;;;;;;;42.00;37.00;;;;;;;;5191244;28;8916;-79
2022/08/08 03:43:09;;;;;;;;;41.00;35.00;;;;;;;;5194629;28;8801;-79
2022/08/08 03:45:42;;;;;;;;;45.60;38.80;;;;;;;;5174683;28;8793;-79
2022/08/08 03:48:16;;;;;;;;;47.80;38.40;;;;;;;;5177443;28;8801;-79
2022/08/08 03:50:48;;;;;;;;;45.80;39.00;;;;;;;;5228774;28;8826;-79
2022/08/08 03:53:37;;;;;;;;;46.40;38.60;;;;;;;;5228135;28;8829;-78
2022/08/08 03:56:08;;;;;;;;;45.00;37.60;;;;;;;;5193848;28;8767;-78
2022/08/08 03:58:40;;;;;;;;;46.20;39.60;;;;;;;;5210323;28;8829;-75
2022/08/08 04:01:36;;;;;;;;;44.60;38.20;;;;;;;;5201886;28;8789;-76
2022/08/08 04:04:08;;;;;;;;;46.60;39.00;;;;;;;;5189970;28;8773;-75
2022/08/08 04:06:56;;;;;;;;;47.80;40.60;;;;;;;;5158605;28;8799;-77
2022/08/08 04:09:31;;;;;;;;;51.80;42.80;;;;;;;;5173379;28;8785;-78
2022/08/08 04:12:03;;;;;;;;;49.20;41.80;;;;;;;;5173545;28;8801;-77
2022/08/08 04:14:45;;;;;;;;;43.60;37.40;;;;;;;;5173109;28;8939;-76
2022/08/08 04:17:18;;;;;;;;;54.60;45.60;;;;;;;;5181727;28;8838;-76
2022/08/08 04:19:49;;;;;;;;;53.80;44.00;;;;;;;;5193796;28;8840;-76
2022/08/08 04:22:20;;;;;;;;;45.80;39.40;;;;;;;;5230366;28;8864;-77
2022/08/08 04:24:52;;;;;;;;;42.33;37.00;;;;;;;;5213239;28;8787;-77
2022/08/08 04:27:23;;;;;;;;;41.75;36.50;;;;;;;;5210786;28;10580;-75
2022/08/08 04:29:55;;;;;;;;;43.00;36.00;;;;;;;;5209737;28;8929;-76
2022/08/08 04:32:26;;;;;;;;;34.75;31.50;;;;;;;;5186555;28;8886;-76
2022/08/08 04:34:57;;;;;;;;;36.25;33.25;;;;;;;;5189284;28;8795;-77
2022/08/08 04:37:31;;;;;;;;;30.00;29.50;;;;;;;;5171605;28;8777;-78
2022/08/08 04:40:02;;;;;;;;;30.00;28.50;;;;;;;;5189542;28;8788;-77
2022/08/08 04:42:37;;;;;;;;;29.75;29.00;;;;;;;;5172765;28;8780;-78
2022/08/08 04:45:08;;;;;;;;;30.50;29.00;;;;;;;;5189313;28;8773;-77
2022/08/08 04:47:40;;;;;;;;;36.00;33.00;;;;;;;;5185615;28;8783;-76
2022/08/08 04:50:11;;;;;;;;;29.00;28.00;;;;;;;;5169363;28;8825;-76
2022/08/08 04:52:42;;;;;;;;;25.75;25.50;;;;;;;;5197621;28;10327;-76
2022/08/08 04:55:18;;;;;;;;;23.00;23.00;;;;;;;;5183651;28;8825;-77
2022/08/08 04:57:49;;;;;;;;;25.00;25.00;;;;;;;;5190979;28;8812;-76
2022/08/08 05:00:23;;;;;;;;;28.75;28.50;;;;;;;;5188850;28;8834;-82
2022/08/08 05:02:56;;;;;;;;;25.75;25.75;;;;;;;;5172813;28;8882;-80
2022/08/08 05:05:27;;;;;;;;;28.25;27.75;;;;;;;;5188646;28;8797;-83
2022/08/08 05:07:58;;;;;;;;;30.00;29.00;;;;;;;;5189076;28;8804;-81
2022/08/08 05:10:30;;;;;;;;;27.75;27.75;;;;;;;;5197123;28;12187;-80
2022/08/08 05:13:03;;;;;;;;;31.25;30.00;;;;;;;;5187158;28;8834;-80
2022/08/08 05:15:38;;;;;;;;;28.75;28.50;;;;;;;;5186841;28;8975;-79
2022/08/08 05:18:27;;;;;;;;;27.75;27.75;;;;;;;;5212090;28;8846;-77
2022/08/08 05:20:59;;;;;;;;;29.75;29.00;;;;;;;;5198085;28;8851;-79
2022/08/08 05:23:30;;;;;;;;;30.75;27.75;;;;;;;;5192732;28;8813;-81
2022/08/08 05:26:02;;;;;;;;;29.75;29.00;;;;;;;;5192434;28;8791;-80
2022/08/08 05:28:33;;;;;;;;;30.25;29.50;;;;;;;;5204959;28;8814;-80
2022/08/08 05:31:04;;;;;;;;;31.00;30.00;;;;;;;;5186821;28;8785;-79
2022/08/08 05:33:35;;;;;;;;;31.00;29.50;;;;;;;;5186218;28;8841;-79
2022/08/08 05:36:07;;;;;;;;;29.00;28.75;;;;;;;;5186875;28;8813;-82
2022/08/08 05:38:45;;;;;;;;;29.00;28.50;;;;;;;;5170421;28;8785;-80
2022/08/08 05:41:18;;;;;;;;;25.25;25.25;;;;;;;;5186333;28;8793;-82
2022/08/08 05:43:55;;;;;;;;;31.25;29.75;;;;;;;;5170229;28;8797;-80
2022/08/08 05:46:27;;;;;;;;;25.50;25.50;;;;;;;;5205277;28;8799;-80
2022/08/08 05:49:17;;;;;;;;;23.00;23.00;;;;;;;;5224631;28;8799;-78
2022/08/08 05:51:48;;;;;;;;;23.75;23.75;;;;;;;;5190647;28;8794;-77
2022/08/08 05:54:20;;;;;;;;;24.50;24.50;;;;;;;;5207154;28;8836;-76
2022/08/08 05:56:52;;;;;;;;;28.00;28.00;;;;;;;;5208275;28;8828;-79
2022/08/08 05:59:28;;;;;;;;;22.50;22.50;;;;;;;;5188552;28;8809;-78
2022/08/08 06:02:00;;;;;;;;;24.75;24.75;;;;;;;;5154215;28;8793;-82
2022/08/08 06:04:33;;;;;;;;;24.75;24.50;;;;;;;;5173545;28;8781;-79
2022/08/08 06:07:07;;;;;;;;;30.25;29.25;;;;;;;;5180080;28;8829;-80
2022/08/08 06:09:39;;;;;;;;;29.25;28.00;;;;;;;;5182111;28;8786;-80
2022/08/08 06:12:10;;;;;;;;;24.50;24.50;;;;;;;;5198783;28;8840;-81
2022/08/08 06:14:42;;;;;;;;;22.75;22.75;;;;;;;;5197674;28;8858;-82
2022/08/08 06:17:14;;;;;;;;;26.00;26.00;;;;;;;;5170233;28;8765;-81
2022/08/08 06:19:54;;;;;;;;;27.50;27.50;;;;;;;;5191954;28;8812;-84
2022/08/08 06:22:25;;;;;;;;;20.50;20.50;;;;;;;;5170625;28;8809;-82
2022/08/08 06:24:59;;;;;;;;;23.25;23.25;;;;;;;;5186811;28;8811;-80
2022/08/08 06:27:33;;;;;;;;;25.00;25.00;;;;;;;;5203521;28;8791;-83
2022/08/08 06:30:06;;;;;;;;;22.00;22.00;;;;;;;;5169039;28;8820;-78
2022/08/08 06:32:44;;;;;;;;;18.75;18.75;;;;;;;;5205300;28;8822;-74
2022/08/08 06:35:16;;;;;;;;;25.00;25.00;;;;;;;;5188928;28;8819;-82
2022/08/08 06:37:55;;;;;;;;;24.50;24.50;;;;;;;;5188891;28;8816;-82
2022/08/08 06:40:31;;;;;;;;;26.25;26.25;;;;;;;;5200620;28;8799;-81
2022/08/08 06:43:06;;;;;;;;;21.50;21.25;;;;;;;;5207657;28;8783;-82
2022/08/08 06:45:45;;;;;;;;;25.25;25.25;;;;;;;;5208128;28;8771;-81
2022/08/08 06:48:16;;;;;;;;;25.75;25.75;;;;;;;;5191190;28;8917;-81
2022/08/08 06:51:06;;;;;;;;;20.00;20.00;;;;;;;;5226042;28;8846;-84
2022/08/08 06:53:37;;;;;;;;;20.00;20.00;;;;;;;;5174908;28;8819;-81
2022/08/08 06:56:08;;;;;;;;;22.25;22.25;;;;;;;;5166974;28;8789;-83
2022/08/08 06:58:40;;;;;;;;;22.00;22.00;;;;;;;;5204895;28;8803;-83
2022/08/08 07:01:13;;;;;;;;;24.50;24.50;;;;;;;;5241922;28;8750;-82
2022/08/08 07:03:52;;;;;;;;;22.50;22.50;;;;;;;;5222354;28;8882;-84
2022/08/08 07:06:27;;;;;;;;;23.00;22.50;;;;;;;;5222285;28;8771;-83
2022/08/08 07:09:10;;;;;;;;;21.00;21.00;;;;;;;;5237356;28;8759;-84
2022/08/08 07:11:51;;;;;;;;;21.50;21.50;;;;;;;;5195844;28;8822;-80
2022/08/08 07:14:30;;;;;;;;;21.75;21.75;;;;;;;;5186749;28;8785;-80
2022/08/08 07:17:04;;;;;;;;;18.75;18.75;;;;;;;;5199358;28;8793;-81
2022/08/08 07:19:54;;;;;;;;;23.50;23.50;;;;;;;;5215540;28;9480;-80
2022/08/08 07:22:32;;;;;;;;;20.00;20.00;;;;;;;;5209783;28;8809;-81
2022/08/08 07:25:24;;;;;;;;;16.50;16.50;;;;;;;;5214066;28;8785;-82
2022/08/08 07:27:59;;;;;;;;;21.00;21.00;;;;;;;;5228048;28;8853;-83
2022/08/08 07:30:31;;;;;;;;;23.00;22.75;;;;;;;;5211303;28;9587;-83
2022/08/08 07:33:03;;;;;;;;;20.75;20.75;;;;;;;;5195657;28;8895;-80
2022/08/08 07:35:43;;;;;;;;;23.00;23.00;;;;;;;;5213702;28;8809;-86
2022/08/08 07:38:19;;;;;;;;;24.50;24.25;;;;;;;;5199152;28;8791;-82
2022/08/08 07:41:09;;;;;;;;;22.50;22.50;;;;;;;;5231109;28;8830;-83
2022/08/08 07:43:42;;;;;;;;;20.50;20.50;;;;;;;;5208060;28;8801;-83
2022/08/08 07:46:31;;;;;;;;;20.00;20.00;;;;;;;;5197539;28;8799;-82
2022/08/08 07:49:12;;;;;;;;;20.75;20.75;;;;;;;;5215627;28;8794;-84
2022/08/08 07:52:10;;;;;;;;;20.75;20.75;;;;;;;;5200737;28;8860;-84
2022/08/08 07:54:43;;;;;;;;;23.25;23.25;;;;;;;;5198191;28;8801;-82
2022/08/08 07:57:32;;;;;;;;;22.00;22.00;;;;;;;;5196225;28;9497;-83
2022/08/08 08:00:09;;;;;;;;;22.50;22.50;;;;;;;;5222026;28;8798;-81
2022/08/08 08:02:50;;;;;;;;;22.25;22.25;;;;;;;;5196051;28;8816;-82
2022/08/08 08:05:22;;;;;;;;;23.00;23.00;;;;;;;;5176408;28;8789;-83
2022/08/08 08:07:55;;;;;;;;;22.25;22.25;;;;;;;;5173983;28;9510;-82
2022/08/08 08:10:33;;;;;;;;;24.75;24.75;;;;;;;;5194743;28;9579;-83
2022/08/08 08:13:21;;;;;;;;;19.25;19.25;;;;;;;;5193723;28;8843;-81
2022/08/08 08:16:14;;;;;;;;;22.25;22.25;;;;;;;;5196044;28;8814;-82
2022/08/08 08:19:07;;;;;;;;;18.25;18.25;;;;;;;;5228387;28;8836;-85
2022/08/08 08:21:43;;;;;;;;;21.25;21.25;;;;;;;;5173499;28;8776;-86
2022/08/08 08:24:19;;;;;;;;;23.00;23.00;;;;;;;;5173370;28;8781;-82
2022/08/08 08:26:51;;;;;;;;;22.00;22.00;;;;;;;;5190700;28;8765;-81
2022/08/08 08:29:22;;;;;;;;;22.50;22.50;;;;;;;;5173569;28;8778;-83
2022/08/08 08:31:55;;;;;;;;;24.00;24.00;;;;;;;;5173553;28;8773;-81
2022/08/08 08:34:26;;;;;;;;;21.25;21.25;;;;;;;;5156738;28;8777;-82
2022/08/08 08:36:58;;;;;;;;;21.25;21.25;;;;;;;;5188974;28;8789;-81
2022/08/08 08:39:29;;;;;;;;;19.75;19.75;;;;;;;;5189740;28;8757;-82
2022/08/08 08:42:01;;;;;;;;;16.75;16.75;;;;;;;;5172936;28;8799;-81
2022/08/08 08:44:32;;;;;;;;;16.75;16.75;;;;;;;;5173119;28;9504;-82
2022/08/08 08:47:03;;;;;;;;;21.50;21.50;;;;;;;;5192182;28;8779;-81
2022/08/08 08:49:35;;;;;;;;;20.25;20.25;;;;;;;;5227303;28;8752;-82
2022/08/08 08:52:08;;;;;;;;;23.00;23.00;;;;;;;;5199709;28;8954;-82
2022/08/08 08:54:40;;;;;;;;;23.00;23.00;;;;;;;;5156301;28;8782;-82
2022/08/08 08:57:12;;;;;;;;;21.75;21.75;;;;;;;;5172532;28;8823;-81
2022/08/08 08:59:45;;;;;;;;;24.75;24.75;;;;;;;;5172633;28;8788;-81
2022/08/08 09:02:23;;;;;;;;;19.00;19.00;;;;;;;;5188816;28;8801;-82
2022/08/08 09:05:01;;;;;;;;;21.75;21.75;;;;;;;;5189103;28;8788;-81
2022/08/08 09:07:35;;;;;;;;;21.00;21.00;;;;;;;;5203824;28;8805;-82
2022/08/08 09:10:07;;;;;;;;;18.00;18.00;;;;;;;;5209608;28;8799;-82
2022/08/08 09:12:48;;;;;;;;;20.25;20.25;;;;;;;;5190657;28;8828;-82
2022/08/08 09:15:19;;;;;;;;;22.50;22.25;;;;;;;;5174467;28;8949;-81
2022/08/08 09:17:50;;;;;;;;;20.00;20.00;;;;;;;;5156351;28;8789;-81
2022/08/08 09:20:24;;;;;;;;;21.25;21.25;;;;;;;;5206245;28;9488;-82
2022/08/08 09:23:14;;;;;;;;;21.75;21.75;;;;;;;;5187036;28;8858;-81
2022/08/08 09:25:51;;;;;;;;;22.75;22.75;;;;;;;;5172959;28;8840;-81
2022/08/08 09:28:26;;;;;;;;;19.25;19.25;;;;;;;;5188687;28;8962;-81
2022/08/08 09:31:02;;;;;;;;;25.25;25.25;;;;;;;;5171369;28;8813;-81
2022/08/08 09:33:33;;;;;;;;;22.50;22.50;;;;;;;;5188399;28;8825;-84
2022/08/08 09:36:05;;;;;;;;;19.25;19.25;;;;;;;;5188835;28;8805;-81
2022/08/08 09:38:53;;;;;;;;;20.50;20.50;;;;;;;;5155751;28;8831;-81
2022/08/08 09:41:30;;;;;;;;;23.00;23.00;;;;;;;;5188404;28;8839;-81
2022/08/08 09:44:09;;;;;;;;;19.25;19.25;;;;;;;;5171882;28;9637;-81
2022/08/08 09:46:41;;;;;;;;;21.75;21.75;;;;;;;;5172095;28;9562;-82
2022/08/08 09:49:15;;;;;;;;;21.25;21.25;;;;;;;;5188305;28;8792;-81
2022/08/08 09:51:55;;;;;;;;;21.75;21.75;;;;;;;;5189117;28;8832;-83
2022/08/08 09:54:33;;;;;;;;;19.75;19.75;;;;;;;;5222652;28;8830;-83
2022/08/08 09:57:35;;;;;;;;;19.50;19.50;;;;;;;;5211483;28;8794;-83
2022/08/08 10:00:09;;;;;;;;;21.25;21.25;;;;;;;;5226301;28;8811;-85
2022/08/08 10:02:44;;;;;;;;;19.75;19.75;;;;;;;;5208404;28;8807;-81
2022/08/08 10:05:16;;;;;;;;;17.00;17.00;;;;;;;;5192258;28;8779;-82
2022/08/08 10:07:50;;;;;;;;;18.25;18.25;;;;;;;;5207713;28;9537;-81
2022/08/08 10:10:23;;;;;;;;;21.00;21.00;;;;;;;;5175499;28;8876;-81
2022/08/08 10:12:55;;;;;;;;;20.75;20.75;;;;;;;;5191461;28;8815;-80
2022/08/08 10:15:27;;;;;;;;;19.75;19.75;;;;;;;;5208002;28;9569;-80
2022/08/08 10:17:57;;;;;;;;;20.75;20.75;;;;;;;;5191284;28;8787;-80
2022/08/08 10:20:36;;;;;;;;;20.33;20.33;;;;;;;;5191828;28;8811;-80
2022/08/08 10:23:08;;;;;;;;;20.50;20.50;;;;;;;;5195612;28;11506;-79
2022/08/08 10:25:41;;;;;;;;;18.25;18.25;;;;;;;;5186867;28;8779;-79
2022/08/08 10:28:16;;;;;;;;;22.50;22.50;;;;;;;;5207113;28;9536;-79
2022/08/08 10:30:54;;;;;;;;;16.50;16.50;;;;;;;;5191778;28;8795;-79
2022/08/08 10:33:28;;;;;;;;;15.50;15.50;;;;;;;;5208023;28;8881;-79
2022/08/08 10:36:03;;;;;;;;;20.00;20.00;;;;;;;;5191220;28;8801;-78
2022/08/08 10:38:57;;;;;;;;;17.00;17.00;;;;;;;;5197977;28;8791;-79
2022/08/08 10:41:30;;;;;;;;;22.00;22.00;;;;;;;;5211095;28;9541;-78
2022/08/08 10:44:01;;;;;;;;;18.50;18.50;;;;;;;;5199645;28;8788;-80
2022/08/08 10:46:34;;;;;;;;;24.75;24.75;;;;;;;;5232674;28;9527;-80
2022/08/08 10:49:05;;;;;;;;;17.50;17.50;;;;;;;;5216171;28;8780;-79
2022/08/08 10:51:36;;;;;;;;;21.33;21.33;;;;;;;;5232308;28;8781;-78
2022/08/08 10:54:07;;;;;;;;;19.00;19.00;;;;;;;;5250767;28;11570;-81
2022/08/08 10:57:00;;;;;;;;;17.00;17.00;;;;;;;;5214872;28;8763;-79
2022/08/08 10:59:31;;;;;;;;;20.25;20.25;;;;;;;;5195206;28;8772;-79
2022/08/08 11:02:02;;;;;;;;;21.50;21.50;;;;;;;;5229831;28;8783;-78
2022/08/08 11:04:43;;;;;;;;;21.00;21.00;;;;;;;;5211801;28;9490;-79
2022/08/08 11:07:23;;;;;;;;;20.75;20.75;;;;;;;;5194524;28;11487;-80
2022/08/08 11:09:54;;;;;;;;;21.00;21.00;;;;;;;;5229511;28;8786;-81
2022/08/08 11:12:25;;;;;;;;;17.25;17.25;;;;;;;;5228858;28;8851;-83
2022/08/08 11:14:59;;;;;;;;;21.25;21.00;;;;;;;;5200598;28;8852;-80
2022/08/08 11:17:31;;;;;;;;;16.50;16.50;;;;;;;;5158266;28;8796;-80
2022/08/08 11:20:02;;;;;;;;;19.50;19.50;;;;;;;;5174621;28;8785;-81
2022/08/08 11:22:52;;;;;;;;;21.75;21.75;;;;;;;;5190864;28;8803;-82
2022/08/08 11:25:24;;;;;;;;;17.00;17.00;;;;;;;;5158342;28;8904;-82
2022/08/08 11:27:56;;;;;;;;;17.75;17.75;;;;;;;;5174381;28;8793;-82
2022/08/08 11:30:46;;;;;;;;;21.00;21.00;;;;;;;;5194960;28;8798;-80
2022/08/08 11:33:22;;;;;;;;;57.00;46.00;;;;;;;;5206179;28;8835;-82
2022/08/08 11:35:54;;;;;;;;;97.80;88.60;;;;;;;;5158563;28;8784;-82
2022/08/08 11:38:25;;;;;;;;;60.60;48.80;;;;;;;;5175498;28;8789;-80
2022/08/08 11:40:57;;;;;;;;;37.50;33.50;;;;;;;;5215762;28;8822;-80
2022/08/08 11:43:29;;;;;;;;;23.75;23.75;;;;;;;;5243693;28;8927;-79
2022/08/08 11:46:01;;;;;;;;;19.25;19.25;;;;;;;;5230721;28;8771;-79
2022/08/08 11:48:51;;;;;;;;;18.50;18.50;;;;;;;;5228961;28;8779;-79
2022/08/08 11:51:23;;;;;;;;;19.00;19.00;;;;;;;;5210815;28;8921;-80
2022/08/08 11:54:13;;;;;;;;;18.50;18.50;;;;;;;;5207888;28;8833;-79
2022/08/08 11:56:44;;;;;;;;;59.00;48.75;;;;;;;;5190156;28;8789;-78
2022/08/08 11:59:15;;;;;;;;;23.67;23.67;;;;;;;;5173545;28;11529;-79
2022/08/08 12:02:05;;;;;;;;;19.50;19.50;;;;;;;;5207938;28;12435;-79
2022/08/08 12:04:36;;;;;;;;;22.50;22.50;;;;;;;;5190039;28;8846;-81
2022/08/08 12:07:26;;;;;;;;;17.50;17.50;;;;;;;;5214259;28;8921;-80
2022/08/08 12:10:08;;;;;;;;;23.00;23.00;;;;;;;;5210358;28;8775;-80
2022/08/08 12:12:43;;;;;;;;;17.75;17.75;;;;;;;;5194990;28;8959;-81
2022/08/08 12:15:29;;;;;;;;;22.75;22.75;;;;;;;;5173299;28;8813;-82
2022/08/08 12:18:11;;;;;;;;;19.50;19.50;;;;;;;;5157300;28;8800;-80
2022/08/08 12:20:42;;;;;;;;;17.50;17.50;;;;;;;;5190210;28;8940;-81
2022/08/08 12:23:14;;;;;;;;;20.25;20.25;;;;;;;;5157188;28;8888;-81
2022/08/08 12:25:44;;;;;;;;;17.50;17.50;;;;;;;;5190703;28;8856;-80
2022/08/08 12:28:33;;;;;;;;;34.75;32.50;;;;;;;;5196104;28;8810;-81
2022/08/08 12:31:05;;;;;;;;;37.00;33.00;;;;;;;;5199116;28;8793;-81
2022/08/08 12:33:39;;;;;;;;;20.50;20.50;;;;;;;;5173125;28;9375;-82
2022/08/08 12:36:10;;;;;;;;;16.50;16.50;;;;;;;;5206977;28;8762;-82
2022/08/08 12:38:51;;;;;;;;;18.00;18.00;;;;;;;;5206936;28;8838;-81
2022/08/08 12:41:24;;;;;;;;;20.25;20.25;;;;;;;;5193618;28;8759;-81
2022/08/08 12:44:03;;;;;;;;;19.00;19.00;;;;;;;;5210094;28;8810;-82
2022/08/08 12:46:35;;;;;;;;;19.00;19.00;;;;;;;;5210090;28;8801;-81
2022/08/08 12:49:06;;;;;;;;;21.75;21.75;;;;;;;;5190736;28;8790;-79
2022/08/08 12:51:41;;;;;;;;;17.67;17.67;;;;;;;;5172717;28;9468;-80
2022/08/08 12:54:19;;;;;;;;;21.50;21.50;;;;;;;;5189017;28;8812;-80
2022/08/08 12:56:50;;;;;;;;;20.50;20.50;;;;;;;;5172833;28;9500;-79
2022/08/08 12:59:23;;;;;;;;;25.25;25.25;;;;;;;;5188000;28;8851;-79
2022/08/08 13:01:58;;;;;;;;;21.50;21.50;;;;;;;;5207057;28;8777;-79
2022/08/08 13:04:32;;;;;;;;;20.00;20.00;;;;;;;;5183306;28;8783;-80
2022/08/08 13:07:05;;;;;;;;;20.25;20.00;;;;;;;;5176935;28;8779;-79
2022/08/08 13:09:52;;;;;;;;;19.25;19.25;;;;;;;;5191933;28;9140;-81
2022/08/08 13:12:42;;;;;;;;;54.40;44.80;;;;;;;;5205687;28;8813;-81
2022/08/08 13:15:14;;;;;;;;;22.25;22.25;;;;;;;;5205186;28;9424;-82
2022/08/08 13:17:46;;;;;;;;;22.00;22.00;;;;;;;;5194622;28;8800;-82
2022/08/08 13:20:18;;;;;;;;;16.75;16.75;;;;;;;;5178575;28;8880;-80
2022/08/08 13:23:14;;;;;;;;;20.75;20.75;;;;;;;;5182185;28;8847;-80
2022/08/08 13:26:05;;;;;;;;;23.75;23.75;;;;;;;;5220492;28;8797;-82
2022/08/08 13:28:36;;;;;;;;;20.25;20.25;;;;;;;;5185275;28;8819;-81
2022/08/08 13:31:10;;;;;;;;;20.67;20.67;;;;;;;;5222158;28;8806;-81
2022/08/08 13:33:44;;;;;;;;;13.75;13.75;;;;;;;;5200657;28;10618;-81
2022/08/08 13:36:18;;;;;;;;;30.25;29.25;;;;;;;;5192676;28;8818;-79
2022/08/08 13:38:50;;;;;;;;;19.50;19.50;;;;;;;;5192270;28;8795;-82
2022/08/08 13:41:21;;;;;;;;;15.50;15.50;;;;;;;;5192213;28;8821;-80
2022/08/08 13:43:52;;;;;;;;;44.80;38.40;;;;;;;;5173562;28;8794;-81
2022/08/08 13:46:23;;;;;;;;;42.80;36.80;;;;;;;;5192089;28;8805;-81
2022/08/08 13:48:54;;;;;;;;;54.50;45.25;;;;;;;;5175612;28;8783;-82
2022/08/08 13:51:25;;;;;;;;;26.50;26.25;;;;;;;;5226190;28;11871;-81
2022/08/08 13:53:56;;;;;;;;;30.60;29.80;;;;;;;;5174224;28;8822;-80
2022/08/08 13:56:28;;;;;;;;;18.50;18.50;;;;;;;;5208172;28;9506;-80
2022/08/08 13:58:59;;;;;;;;;16.75;16.75;;;;;;;;5208551;28;9490;-78
2022/08/08 14:01:31;;;;;;;;;20.00;20.00;;;;;;;;5191949;28;8798;-81
2022/08/08 14:04:02;;;;;;;;;14.25;14.25;;;;;;;;5208390;28;8933;-81
2022/08/08 14:06:42;;;;;;;;;20.50;20.50;;;;;;;;5191525;28;8799;-80
2022/08/08 14:09:33;;;;;;;;;20.00;20.00;;;;;;;;5194420;28;8767;-84
2022/08/08 14:12:04;;;;;;;;;21.00;21.00;;;;;;;;5191656;28;8819;-81
2022/08/08 14:14:39;;;;;;;;;43.00;37.50;;;;;;;;5224329;28;8949;-81
2022/08/08 14:17:29;;;;;;;;;21.00;20.75;;;;;;;;5207897;28;9564;-82
2022/08/08 14:20:05;;;;;;;;;16.75;16.75;;;;;;;;5196400;28;8793;-82
2022/08/08 14:22:37;;;;;;;;;17.50;16.75;;;;;;;;5171331;28;9520;-81
2022/08/08 14:25:09;;;;;;;;;18.25;18.25;;;;;;;;5204987;28;8812;-80
2022/08/08 14:27:40;;;;;;;;;71.00;64.80;;;;;;;;5215229;28;8767;-81
2022/08/08 14:30:13;;;;;;;;;25.50;25.00;;;;;;;;5207759;28;8795;-81
2022/08/08 14:32:45;;;;;;;;;44.40;38.00;;;;;;;;5207824;28;8964;-81
2022/08/08 14:35:21;;;;;;;;;21.50;21.50;;;;;;;;5208200;28;8779;-80
2022/08/08 14:37:52;;;;;;;;;34.75;32.00;;;;;;;;5190768;28;9485;-78
2022/08/08 14:40:24;;;;;;;;;112.75;106.50;;;;;;;;5190147;28;8823;-80
2022/08/08 14:42:56;;;;;;;;;23.00;23.00;;;;;;;;5205407;28;8807;-78
2022/08/08 14:45:28;;;;;;;;;111.20;109.60;;;;;;;;5205211;28;8830;-79
2022/08/08 14:48:01;;;;;;;;;37.00;33.50;;;;;;;;5189432;28;8798;-82
2022/08/08 14:50:33;;;;;;;;;29.50;28.75;;;;;;;;5224143;28;8803;-82
2022/08/08 14:53:33;;;;;;;;;24.50;24.50;;;;;;;;5223548;28;8846;-79
2022/08/08 14:56:04;;;;;;;;;26.25;26.25;;;;;;;;5206058;28;9521;-80
2022/08/08 14:58:35;;;;;;;;;32.25;30.50;;;;;;;;5223182;28;8811;-82
2022/08/08 15:01:06;;;;;;;;;32.25;30.25;;;;;;;;5173546;28;8803;-80
2022/08/08 15:03:37;;;;;;;;;29.25;28.50;;;;;;;;5192859;28;8854;-82
2022/08/08 15:06:08;;;;;;;;;30.00;29.00;;;;;;;;5168999;28;8898;-81
2022/08/08 15:08:39;;;;;;;;;29.33;28.33;;;;;;;;5152652;28;8785;-78
2022/08/08 15:11:10;;;;;;;;;27.50;27.50;;;;;;;;5185363;28;9560;-80
2022/08/08 15:13:42;;;;;;;;;44.80;38.00;;;;;;;;5191180;28;8830;-79
2022/08/08 15:16:31;;;;;;;;;44.60;38.40;;;;;;;;5231338;28;8815;-79
2022/08/08 15:19:03;;;;;;;;;27.00;27.00;;;;;;;;5214492;28;8799;-78
2022/08/08 15:21:52;;;;;;;;;25.25;25.25;;;;;;;;5230222;28;11508;-77
2022/08/08 15:24:23;;;;;;;;;28.25;28.25;;;;;;;;5210453;28;8802;-80
2022/08/08 15:26:54;;;;;;;;;34.75;31.75;;;;;;;;5209787;28;8815;-78
2022/08/08 15:29:25;;;;;;;;;29.00;28.75;;;;;;;;5208915;28;8949;-78
2022/08/08 15:31:58;;;;;;;;;30.50;29.50;;;;;;;;5208805;28;8790;-79
2022/08/08 15:34:29;;;;;;;;;25.50;25.50;;;;;;;;5207267;28;8835;-79